sensor_id;sensor_type;location;lat;lon;timestamp;P1;durP1;ratioP1;P2;durP2;ratioP2
69253;SDS011;56364;41.816;12.448;2023-02-01T00:01:50;22.10;;;10.23;;
69253;SDS011;56364;41.816;12.448;2023-02-01T00:04:17;22.50;;;10.18;;
69253;SDS011;56364;41.816;12.448;2023-02-01T00:06:43;30.20;;;11.70;;
69253;SDS011;56364;41.816;12.448;2023-02-01T00:09:09;23.17;;;9.38;;
69253;SDS011;56364;41.816;12.448;2023-02-01T00:11:35;23.75;;;9.68;;
69253;SDS011;56364;41.816;12.448;2023-02-01T00:14:03;16.70;;;9.10;;
69253;SDS011;56364;41.816;12.448;2023-02-01T00:16:32;25.45;;;9.52;;
69253;SDS011;56364;41.816;12.448;2023-02-01T00:18:59;25.33;;;11.65;;
69253;SDS011;56364;41.816;12.448;2023-02-01T00:21:26;23.80;;;10.02;;
69253;SDS011;56364;41.816;12.448;2023-02-01T00:23:53;31.13;;;10.77;;
69253;SDS011;56364;41.816;12.448;2023-02-01T00:26:22;20.65;;;10.27;;
69253;SDS011;56364;41.816;12.448;2023-02-01T00:28:51;27.77;;;11.38;;
69253;SDS011;56364;41.816;12.448;2023-02-01T00:31:17;32.83;;;9.98;;
69253;SDS011;56364;41.816;12.448;2023-02-01T00:33:43;23.90;;;11.25;;
69253;SDS011;56364;41.816;12.448;2023-02-01T00:36:15;22.23;;;11.10;;
69253;SDS011;56364;41.816;12.448;2023-02-01T00:41:12;22.52;;;8.80;;
69253;SDS011;56364;41.816;12.448;2023-02-01T00:43:38;26.30;;;9.55;;
69253;SDS011;56364;41.816;12.448;2023-02-01T00:46:05;17.30;;;8.65;;
69253;SDS011;56364;41.816;12.448;2023-02-01T00:48:31;28.50;;;9.85;;
69253;SDS011;56364;41.816;12.448;2023-02-01T00:51:00;21.13;;;9.27;;
69253;SDS011;56364;41.816;12.448;2023-02-01T00:53:27;19.83;;;10.05;;
69253;SDS011;56364;41.816;12.448;2023-02-01T00:55:53;25.30;;;9.55;;
69253;SDS011;56364;41.816;12.448;2023-02-01T00:58:22;23.63;;;9.75;;
69253;SDS011;56364;41.816;12.448;2023-02-01T01:01:11;22.55;;;9.90;;
69253;SDS011;56364;41.816;12.448;2023-02-01T01:06:07;17.48;;;8.07;;
69253;SDS011;56364;41.816;12.448;2023-02-01T01:08:37;19.42;;;8.80;;
69253;SDS011;56364;41.816;12.448;2023-02-01T01:11:22;19.73;;;8.85;;
69253;SDS011;56364;41.816;12.448;2023-02-01T01:16:27;22.13;;;9.20;;
69253;SDS011;56364;41.816;12.448;2023-02-01T01:18:54;23.15;;;9.15;;
69253;SDS011;56364;41.816;12.448;2023-02-01T01:21:27;15.20;;;8.20;;
69253;SDS011;56364;41.816;12.448;2023-02-01T01:23:54;19.63;;;8.90;;
69253;SDS011;56364;41.816;12.448;2023-02-01T01:26:24;18.90;;;8.88;;
69253;SDS011;56364;41.816;12.448;2023-02-01T01:28:53;20.55;;;8.57;;
69253;SDS011;56364;41.816;12.448;2023-02-01T01:31:20;19.33;;;8.50;;
69253;SDS011;56364;41.816;12.448;2023-02-01T01:33:50;18.70;;;8.60;;
69253;SDS011;56364;41.816;12.448;2023-02-01T01:36:20;22.85;;;8.18;;
69253;SDS011;56364;41.816;12.448;2023-02-01T01:38:52;24.00;;;9.00;;
69253;SDS011;56364;41.816;12.448;2023-02-01T01:41:23;30.63;;;9.48;;
69253;SDS011;56364;41.816;12.448;2023-02-01T01:43:56;20.40;;;8.68;;
69253;SDS011;56364;41.816;12.448;2023-02-01T01:46:31;18.88;;;8.18;;
69253;SDS011;56364;41.816;12.448;2023-02-01T01:49:03;21.88;;;8.98;;
69253;SDS011;56364;41.816;12.448;2023-02-01T01:51:36;18.35;;;7.85;;
69253;SDS011;56364;41.816;12.448;2023-02-01T01:54:11;19.83;;;8.45;;
69253;SDS011;56364;41.816;12.448;2023-02-01T01:56:38;16.48;;;8.57;;
69253;SDS011;56364;41.816;12.448;2023-02-01T01:59:06;21.70;;;8.38;;
69253;SDS011;56364;41.816;12.448;2023-02-01T02:01:32;17.92;;;9.18;;
69253;SDS011;56364;41.816;12.448;2023-02-01T02:04:01;18.13;;;8.45;;
69253;SDS011;56364;41.816;12.448;2023-02-01T02:06:45;24.05;;;8.88;;
69253;SDS011;56364;41.816;12.448;2023-02-01T02:09:13;21.00;;;9.63;;
69253;SDS011;56364;41.816;12.448;2023-02-01T02:11:40;19.42;;;8.45;;
69253;SDS011;56364;41.816;12.448;2023-02-01T02:14:07;21.70;;;8.38;;
69253;SDS011;56364;41.816;12.448;2023-02-01T02:22:29;18.42;;;7.97;;
69253;SDS011;56364;41.816;12.448;2023-02-01T02:35:42;14.88;;;7.80;;
69253;SDS011;56364;41.816;12.448;2023-02-01T02:38:15;21.17;;;8.52;;
69253;SDS011;56364;41.816;12.448;2023-02-01T02:40:49;22.67;;;8.77;;
69253;SDS011;56364;41.816;12.448;2023-02-01T02:49:04;17.95;;;8.63;;
69253;SDS011;56364;41.816;12.448;2023-02-01T02:51:43;15.13;;;7.30;;
69253;SDS011;56364;41.816;12.448;2023-02-01T02:54:31;13.27;;;6.95;;
69253;SDS011;56364;41.816;12.448;2023-02-01T02:57:12;20.50;;;8.40;;
69253;SDS011;56364;41.816;12.448;2023-02-01T02:59:57;19.80;;;7.57;;
69253;SDS011;56364;41.816;12.448;2023-02-01T03:02:44;19.05;;;7.80;;
69253;SDS011;56364;41.816;12.448;2023-02-01T03:15:38;14.52;;;6.32;;
69253;SDS011;56364;41.816;12.448;2023-02-01T03:18:26;12.10;;;6.55;;
69253;SDS011;56364;41.816;12.448;2023-02-01T03:20:55;15.43;;;5.82;;
69253;SDS011;56364;41.816;12.448;2023-02-01T03:23:26;20.92;;;6.22;;
69253;SDS011;56364;41.816;12.448;2023-02-01T03:25:54;15.77;;;6.32;;
69253;SDS011;56364;41.816;12.448;2023-02-01T03:28:23;16.20;;;6.78;;
69253;SDS011;56364;41.816;12.448;2023-02-01T03:30:51;19.08;;;7.72;;
69253;SDS011;56364;41.816;12.448;2023-02-01T03:33:19;10.77;;;6.35;;
69253;SDS011;56364;41.816;12.448;2023-02-01T03:40:46;14.48;;;6.28;;
69253;SDS011;56364;41.816;12.448;2023-02-01T03:43:15;17.65;;;6.65;;
69253;SDS011;56364;41.816;12.448;2023-02-01T03:45:52;16.92;;;6.22;;
69253;SDS011;56364;41.816;12.448;2023-02-01T03:48:26;18.10;;;7.20;;
69253;SDS011;56364;41.816;12.448;2023-02-01T03:51:05;17.15;;;7.00;;
69253;SDS011;56364;41.816;12.448;2023-02-01T03:56:01;11.05;;;4.47;;
69253;SDS011;56364;41.816;12.448;2023-02-01T03:58:28;11.02;;;6.00;;
69253;SDS011;56364;41.816;12.448;2023-02-01T04:00:57;13.25;;;6.65;;
69253;SDS011;56364;41.816;12.448;2023-02-01T04:03:42;14.07;;;5.97;;
69253;SDS011;56364;41.816;12.448;2023-02-01T04:06:11;14.98;;;6.03;;
69253;SDS011;56364;41.816;12.448;2023-02-01T04:08:38;12.25;;;6.20;;
69253;SDS011;56364;41.816;12.448;2023-02-01T04:11:04;18.83;;;6.75;;
69253;SDS011;56364;41.816;12.448;2023-02-01T04:13:30;14.27;;;6.88;;
69253;SDS011;56364;41.816;12.448;2023-02-01T06:27:21;11.85;;;3.72;;
69253;SDS011;56364;41.816;12.448;2023-02-01T06:32:20;12.13;;;4.00;;
69253;SDS011;56364;41.816;12.448;2023-02-01T06:34:46;7.03;;;3.28;;
69253;SDS011;56364;41.816;12.448;2023-02-01T06:37:17;7.75;;;3.47;;
69253;SDS011;56364;41.816;12.448;2023-02-01T06:39:53;13.07;;;3.47;;
69253;SDS011;56364;41.816;12.448;2023-02-01T06:42:47;14.02;;;4.05;;
69253;SDS011;56364;41.816;12.448;2023-02-01T06:53:19;10.90;;;4.65;;
69253;SDS011;56364;41.816;12.448;2023-02-01T06:55:55;12.23;;;4.38;;
69253;SDS011;56364;41.816;12.448;2023-02-01T06:58:22;7.53;;;3.58;;
69253;SDS011;56364;41.816;12.448;2023-02-01T07:00:49;11.60;;;3.85;;
69253;SDS011;56364;41.816;12.448;2023-02-01T07:03:19;9.63;;;3.72;;
69253;SDS011;56364;41.816;12.448;2023-02-01T07:10:48;11.57;;;3.90;;
69253;SDS011;56364;41.816;12.448;2023-02-01T10:25:44;14.90;;;6.72;;
69253;SDS011;56364;41.816;12.448;2023-02-01T10:43:48;31.58;;;11.80;;
69253;SDS011;56364;41.816;12.448;2023-02-01T10:46:19;97.07;;;41.40;;
69253;SDS011;56364;41.816;12.448;2023-02-01T10:52:06;25.83;;;7.07;;
69253;SDS011;56364;41.816;12.448;2023-02-01T10:54:39;12.93;;;6.45;;
69253;SDS011;56364;41.816;12.448;2023-02-01T10:57:09;14.32;;;7.32;;
69253;SDS011;56364;41.816;12.448;2023-02-01T10:59:36;25.98;;;7.28;;
69253;SDS011;56364;41.816;12.448;2023-02-01T11:05:03;15.00;;;7.05;;
69253;SDS011;56364;41.816;12.448;2023-02-01T11:07:30;20.00;;;7.55;;
69253;SDS011;56364;41.816;12.448;2023-02-01T11:09:59;17.05;;;6.82;;
69253;SDS011;56364;41.816;12.448;2023-02-01T11:14:56;27.15;;;7.22;;
69253;SDS011;56364;41.816;12.448;2023-02-01T11:17:38;17.20;;;8.18;;
69253;SDS011;56364;41.816;12.448;2023-02-01T11:22:45;18.98;;;7.05;;
69253;SDS011;56364;41.816;12.448;2023-02-01T11:25:18;23.48;;;8.18;;
69253;SDS011;56364;41.816;12.448;2023-02-01T11:27:50;21.63;;;7.57;;
69253;SDS011;56364;41.816;12.448;2023-02-01T11:30:31;18.08;;;6.50;;
69253;SDS011;56364;41.816;12.448;2023-02-01T11:35:24;15.88;;;7.55;;
69253;SDS011;56364;41.816;12.448;2023-02-01T11:41:14;13.63;;;6.95;;
69253;SDS011;56364;41.816;12.448;2023-02-01T11:43:54;15.23;;;6.20;;
69253;SDS011;56364;41.816;12.448;2023-02-01T11:46:27;16.65;;;6.00;;
69253;SDS011;56364;41.816;12.448;2023-02-01T11:48:54;14.77;;;5.93;;
69253;SDS011;56364;41.816;12.448;2023-02-01T12:13:20;9.52;;;4.95;;
69253;SDS011;56364;41.816;12.448;2023-02-01T12:34:17;10.18;;;2.70;;
69253;SDS011;56364;41.816;12.448;2023-02-01T12:36:53;6.15;;;2.65;;
69253;SDS011;56364;41.816;12.448;2023-02-01T12:39:23;4.43;;;2.13;;
69253;SDS011;56364;41.816;12.448;2023-02-01T12:47:03;11.93;;;2.72;;
69253;SDS011;56364;41.816;12.448;2023-02-01T12:52:09;10.13;;;3.63;;
69253;SDS011;56364;41.816;12.448;2023-02-01T12:54:42;4.93;;;2.35;;
69253;SDS011;56364;41.816;12.448;2023-02-01T12:59:59;10.60;;;2.85;;
69253;SDS011;56364;41.816;12.448;2023-02-01T13:05:15;7.80;;;2.65;;
69253;SDS011;56364;41.816;12.448;2023-02-01T13:07:57;4.25;;;1.67;;
69253;SDS011;56364;41.816;12.448;2023-02-01T13:17:52;5.05;;;1.80;;
69253;SDS011;56364;41.816;12.448;2023-02-01T13:20:30;5.72;;;1.50;;
69253;SDS011;56364;41.816;12.448;2023-02-01T13:22:59;4.55;;;1.48;;
69253;SDS011;56364;41.816;12.448;2023-02-01T13:28:31;6.75;;;2.13;;
69253;SDS011;56364;41.816;12.448;2023-02-01T13:36:48;5.07;;;1.40;;
69253;SDS011;56364;41.816;12.448;2023-02-01T13:39:25;3.10;;;1.40;;
69253;SDS011;56364;41.816;12.448;2023-02-01T13:41:58;8.23;;;1.77;;
69253;SDS011;56364;41.816;12.448;2023-02-01T13:49:23;4.45;;;1.40;;
69253;SDS011;56364;41.816;12.448;2023-02-01T13:51:51;4.78;;;1.75;;
69253;SDS011;56364;41.816;12.448;2023-02-01T13:54:31;3.17;;;1.50;;
69253;SDS011;56364;41.816;12.448;2023-02-01T13:56:59;3.28;;;1.55;;
69253;SDS011;56364;41.816;12.448;2023-02-01T14:04:51;5.15;;;1.30;;
69253;SDS011;56364;41.816;12.448;2023-02-01T14:07:18;3.63;;;1.70;;
69253;SDS011;56364;41.816;12.448;2023-02-01T14:09:45;4.03;;;1.58;;
69253;SDS011;56364;41.816;12.448;2023-02-01T14:14:40;4.93;;;1.75;;
69253;SDS011;56364;41.816;12.448;2023-02-01T14:19:35;6.38;;;1.63;;
69253;SDS011;56364;41.816;12.448;2023-02-01T14:24:40;3.53;;;1.52;;
69253;SDS011;56364;41.816;12.448;2023-02-01T14:29:43;4.72;;;1.10;;
69253;SDS011;56364;41.816;12.448;2023-02-01T14:32:17;5.18;;;1.80;;
69253;SDS011;56364;41.816;12.448;2023-02-01T14:42:22;2.95;;;1.70;;
69253;SDS011;56364;41.816;12.448;2023-02-01T14:44:50;3.25;;;1.27;;
69253;SDS011;56364;41.816;12.448;2023-02-01T14:52:16;6.57;;;1.38;;
69253;SDS011;56364;41.816;12.448;2023-02-01T14:54:43;3.33;;;1.30;;
69253;SDS011;56364;41.816;12.448;2023-02-01T14:57:16;3.45;;;1.50;;
69253;SDS011;56364;41.816;12.448;2023-02-01T14:59:42;11.05;;;1.50;;
69253;SDS011;56364;41.816;12.448;2023-02-01T15:02:31;9.23;;;1.65;;
69253;SDS011;56364;41.816;12.448;2023-02-01T15:04:58;3.78;;;1.42;;
69253;SDS011;56364;41.816;12.448;2023-02-01T15:07:25;5.47;;;2.17;;
69253;SDS011;56364;41.816;12.448;2023-02-01T15:09:52;7.35;;;1.30;;
69253;SDS011;56364;41.816;12.448;2023-02-01T15:12:23;6.18;;;1.48;;
69253;SDS011;56364;41.816;12.448;2023-02-01T15:17:37;4.18;;;1.25;;
69253;SDS011;56364;41.816;12.448;2023-02-01T15:20:23;4.53;;;1.33;;
69253;SDS011;56364;41.816;12.448;2023-02-01T15:25:44;6.63;;;1.63;;
69253;SDS011;56364;41.816;12.448;2023-02-01T15:28:12;6.82;;;1.70;;
69253;SDS011;56364;41.816;12.448;2023-02-01T15:30:38;4.35;;;1.17;;
69253;SDS011;56364;41.816;12.448;2023-02-01T15:35:36;5.20;;;1.60;;
69253;SDS011;56364;41.816;12.448;2023-02-01T15:41:14;6.97;;;1.67;;
69253;SDS011;56364;41.816;12.448;2023-02-01T15:43:46;4.10;;;1.13;;
69253;SDS011;56364;41.816;12.448;2023-02-01T15:46:15;6.82;;;1.35;;
69253;SDS011;56364;41.816;12.448;2023-02-01T15:48:43;3.63;;;1.23;;
69253;SDS011;56364;41.816;12.448;2023-02-01T15:51:14;3.30;;;1.05;;
69253;SDS011;56364;41.816;12.448;2023-02-01T15:56:08;2.85;;;1.30;;
69253;SDS011;56364;41.816;12.448;2023-02-01T15:58:35;7.13;;;1.10;;
69253;SDS011;56364;41.816;12.448;2023-02-01T16:01:02;5.35;;;1.50;;
69253;SDS011;56364;41.816;12.448;2023-02-01T16:03:38;3.72;;;1.63;;
69253;SDS011;56364;41.816;12.448;2023-02-01T16:06:27;7.70;;;1.50;;
69253;SDS011;56364;41.816;12.448;2023-02-01T16:08:54;5.63;;;1.52;;
69253;SDS011;56364;41.816;12.448;2023-02-01T16:11:22;2.75;;;1.10;;
69253;SDS011;56364;41.816;12.448;2023-02-01T16:13:48;4.70;;;1.42;;
69253;SDS011;56364;41.816;12.448;2023-02-01T16:16:15;3.97;;;1.20;;
69253;SDS011;56364;41.816;12.448;2023-02-01T16:18:41;4.82;;;1.23;;
69253;SDS011;56364;41.816;12.448;2023-02-01T16:21:07;6.75;;;1.77;;
69253;SDS011;56364;41.816;12.448;2023-02-01T16:23:37;9.32;;;1.38;;
69253;SDS011;56364;41.816;12.448;2023-02-01T16:26:03;5.45;;;1.30;;
69253;SDS011;56364;41.816;12.448;2023-02-01T16:28:30;2.70;;;1.10;;
69253;SDS011;56364;41.816;12.448;2023-02-01T16:30:56;4.95;;;1.35;;
69253;SDS011;56364;41.816;12.448;2023-02-01T16:33:23;3.38;;;1.20;;
69253;SDS011;56364;41.816;12.448;2023-02-01T16:35:49;10.75;;;1.45;;
69253;SDS011;56364;41.816;12.448;2023-02-01T16:38:17;3.42;;;1.35;;
69253;SDS011;56364;41.816;12.448;2023-02-01T16:40:46;4.00;;;1.35;;
69253;SDS011;56364;41.816;12.448;2023-02-01T16:43:15;5.85;;;1.77;;
69253;SDS011;56364;41.816;12.448;2023-02-01T16:45:41;8.63;;;1.90;;
69253;SDS011;56364;41.816;12.448;2023-02-01T16:48:16;7.85;;;2.03;;
69253;SDS011;56364;41.816;12.448;2023-02-01T16:50:43;4.82;;;2.20;;
69253;SDS011;56364;41.816;12.448;2023-02-01T16:53:11;7.90;;;2.13;;
69253;SDS011;56364;41.816;12.448;2023-02-01T16:55:39;6.88;;;2.10;;
69253;SDS011;56364;41.816;12.448;2023-02-01T16:58:05;6.93;;;2.25;;
69253;SDS011;56364;41.816;12.448;2023-02-01T17:00:31;11.38;;;2.58;;
69253;SDS011;56364;41.816;12.448;2023-02-01T17:03:01;7.15;;;1.85;;
69253;SDS011;56364;41.816;12.448;2023-02-01T17:05:27;7.18;;;2.13;;
69253;SDS011;56364;41.816;12.448;2023-02-01T17:07:54;9.25;;;2.22;;
69253;SDS011;56364;41.816;12.448;2023-02-01T17:10:25;9.55;;;2.15;;
69253;SDS011;56364;41.816;12.448;2023-02-01T17:12:52;8.70;;;2.03;;
69253;SDS011;56364;41.816;12.448;2023-02-01T17:15:18;8.10;;;2.15;;
69253;SDS011;56364;41.816;12.448;2023-02-01T17:17:45;11.70;;;2.05;;
69253;SDS011;56364;41.816;12.448;2023-02-01T17:20:17;7.57;;;2.88;;
69253;SDS011;56364;41.816;12.448;2023-02-01T17:22:44;17.20;;;4.85;;
69253;SDS011;56364;41.816;12.448;2023-02-01T17:25:17;7.00;;;2.72;;
69253;SDS011;56364;41.816;12.448;2023-02-01T17:27:44;12.82;;;2.60;;
69253;SDS011;56364;41.816;12.448;2023-02-01T17:32:36;6.82;;;2.10;;
69253;SDS011;56364;41.816;12.448;2023-02-01T17:35:03;5.60;;;2.38;;
69253;SDS011;56364;41.816;12.448;2023-02-01T17:37:31;7.18;;;2.88;;
69253;SDS011;56364;41.816;12.448;2023-02-01T17:39:57;12.70;;;2.95;;
69253;SDS011;56364;41.816;12.448;2023-02-01T17:50:04;10.15;;;2.95;;
69253;SDS011;56364;41.816;12.448;2023-02-01T17:52:39;6.18;;;2.53;;
69253;SDS011;56364;41.816;12.448;2023-02-01T17:55:16;10.70;;;2.53;;
69253;SDS011;56364;41.816;12.448;2023-02-01T17:57:43;11.43;;;3.20;;
69253;SDS011;56364;41.816;12.448;2023-02-01T18:00:09;7.60;;;2.53;;
69253;SDS011;56364;41.816;12.448;2023-02-01T18:02:37;10.02;;;3.03;;
69253;SDS011;56364;41.816;12.448;2023-02-01T18:07:50;10.10;;;3.03;;
69253;SDS011;56364;41.816;12.448;2023-02-01T18:10:18;10.30;;;3.35;;
69253;SDS011;56364;41.816;12.448;2023-02-01T18:12:45;10.48;;;3.17;;
69253;SDS011;56364;41.816;12.448;2023-02-01T18:17:40;9.88;;;3.33;;
69253;SDS011;56364;41.816;12.448;2023-02-01T18:20:08;12.93;;;2.92;;
69253;SDS011;56364;41.816;12.448;2023-02-01T18:22:34;8.70;;;3.15;;
69253;SDS011;56364;41.816;12.448;2023-02-01T18:25:00;7.82;;;3.38;;
69253;SDS011;56364;41.816;12.448;2023-02-01T18:27:27;11.65;;;3.05;;
69253;SDS011;56364;41.816;12.448;2023-02-01T18:29:54;8.30;;;2.88;;
69253;SDS011;56364;41.816;12.448;2023-02-01T18:32:20;7.63;;;3.33;;
69253;SDS011;56364;41.816;12.448;2023-02-01T18:34:46;14.77;;;3.28;;
69253;SDS011;56364;41.816;12.448;2023-02-01T18:37:21;20.52;;;4.10;;
69253;SDS011;56364;41.816;12.448;2023-02-01T18:39:49;14.95;;;3.30;;
69253;SDS011;56364;41.816;12.448;2023-02-01T18:42:15;15.07;;;3.58;;
69253;SDS011;56364;41.816;12.448;2023-02-01T19:49:55;22.70;;;7.72;;
69253;SDS011;56364;41.816;12.448;2023-02-01T19:52:34;19.90;;;7.38;;
69253;SDS011;56364;41.816;12.448;2023-02-01T19:55:01;26.42;;;7.60;;
69253;SDS011;56364;41.816;12.448;2023-02-01T19:57:28;22.75;;;8.70;;
69253;SDS011;56364;41.816;12.448;2023-02-01T20:00:13;21.85;;;7.97;;
69253;SDS011;56364;41.816;12.448;2023-02-01T20:02:50;15.65;;;7.25;;
69253;SDS011;56364;41.816;12.448;2023-02-01T20:05:16;24.63;;;9.50;;
69253;SDS011;56364;41.816;12.448;2023-02-01T20:08:02;22.77;;;9.63;;
69253;SDS011;56364;41.816;12.448;2023-02-01T20:10:54;24.48;;;9.38;;
69253;SDS011;56364;41.816;12.448;2023-02-01T20:13:25;35.92;;;9.88;;
69253;SDS011;56364;41.816;12.448;2023-02-01T20:16:11;28.15;;;7.90;;
69253;SDS011;56364;41.816;12.448;2023-02-01T20:18:57;22.85;;;10.02;;
69253;SDS011;56364;41.816;12.448;2023-02-01T20:24:42;24.23;;;10.43;;
69253;SDS011;56364;41.816;12.448;2023-02-01T20:27:28;29.17;;;10.68;;
69253;SDS011;56364;41.816;12.448;2023-02-01T20:30:15;21.60;;;9.93;;
69253;SDS011;56364;41.816;12.448;2023-02-01T20:35:53;25.30;;;8.45;;
69253;SDS011;56364;41.816;12.448;2023-02-01T20:38:44;30.00;;;9.77;;
69253;SDS011;56364;41.816;12.448;2023-02-01T21:43:47;22.58;;;10.45;;
69253;SDS011;56364;41.816;12.448;2023-02-01T21:46:27;23.98;;;10.35;;
69253;SDS011;56364;41.816;12.448;2023-02-01T21:48:53;27.80;;;10.98;;
69253;SDS011;56364;41.816;12.448;2023-02-01T21:51:19;25.35;;;11.00;;
69253;SDS011;56364;41.816;12.448;2023-02-01T21:53:45;30.33;;;9.20;;
69253;SDS011;56364;41.816;12.448;2023-02-01T21:56:11;18.63;;;9.55;;
69253;SDS011;56364;41.816;12.448;2023-02-01T21:58:37;29.30;;;10.00;;
69253;SDS011;56364;41.816;12.448;2023-02-01T22:01:06;18.63;;;8.50;;
69253;SDS011;56364;41.816;12.448;2023-02-01T22:03:32;22.13;;;8.60;;
69253;SDS011;56364;41.816;12.448;2023-02-01T22:05:58;25.20;;;9.88;;
69253;SDS011;56364;41.816;12.448;2023-02-01T22:08:24;30.85;;;10.65;;
69253;SDS011;56364;41.816;12.448;2023-02-01T22:10:50;26.88;;;9.70;;
69253;SDS011;56364;41.816;12.448;2023-02-01T22:13:16;26.20;;;9.18;;
69253;SDS011;56364;41.816;12.448;2023-02-01T22:15:42;17.70;;;8.48;;
69253;SDS011;56364;41.816;12.448;2023-02-01T22:18:08;24.67;;;9.90;;
69253;SDS011;56364;41.816;12.448;2023-02-01T22:20:34;22.45;;;9.98;;
69253;SDS011;56364;41.816;12.448;2023-02-01T22:23:01;26.58;;;10.35;;
69253;SDS011;56364;41.816;12.448;2023-02-01T22:25:27;24.95;;;10.60;;
69253;SDS011;56364;41.816;12.448;2023-02-01T22:30:19;20.23;;;8.95;;
69253;SDS011;56364;41.816;12.448;2023-02-01T22:32:46;31.42;;;11.07;;
69253;SDS011;56364;41.816;12.448;2023-02-01T22:35:13;27.73;;;11.57;;
69253;SDS011;56364;41.816;12.448;2023-02-01T22:37:42;21.42;;;9.43;;
69253;SDS011;56364;41.816;12.448;2023-02-01T22:40:09;25.20;;;11.13;;
69253;SDS011;56364;41.816;12.448;2023-02-01T22:42:35;24.15;;;10.20;;
69253;SDS011;56364;41.816;12.448;2023-02-01T22:47:47;22.10;;;9.98;;
69253;SDS011;56364;41.816;12.448;2023-02-01T22:50:39;22.10;;;10.77;;
69253;SDS011;56364;41.816;12.448;2023-02-01T22:53:05;26.73;;;10.55;;
69253;SDS011;56364;41.816;12.448;2023-02-01T22:55:33;25.30;;;10.93;;
69253;SDS011;56364;41.816;12.448;2023-02-01T22:58:00;32.65;;;10.48;;
69253;SDS011;56364;41.816;12.448;2023-02-01T23:00:30;23.48;;;10.90;;
69253;SDS011;56364;41.816;12.448;2023-02-01T23:02:56;29.20;;;11.00;;
69253;SDS011;56364;41.816;12.448;2023-02-01T23:05:22;28.90;;;11.80;;
69253;SDS011;56364;41.816;12.448;2023-02-01T23:07:48;25.13;;;12.45;;
69253;SDS011;56364;41.816;12.448;2023-02-01T23:10:15;27.83;;;11.43;;
69253;SDS011;56364;41.816;12.448;2023-02-01T23:12:42;29.98;;;12.43;;
69253;SDS011;56364;41.816;12.448;2023-02-01T23:17:36;27.13;;;12.43;;
69253;SDS011;56364;41.816;12.448;2023-02-01T23:20:03;27.75;;;11.60;;
69253;SDS011;56364;41.816;12.448;2023-02-01T23:22:30;26.73;;;12.57;;
69253;SDS011;56364;41.816;12.448;2023-02-01T23:24:56;27.85;;;13.00;;
69253;SDS011;56364;41.816;12.448;2023-02-01T23:27:22;30.58;;;13.02;;
69253;SDS011;56364;41.816;12.448;2023-02-01T23:29:52;26.25;;;12.55;;
69253;SDS011;56364;41.816;12.448;2023-02-01T23:32:18;30.00;;;13.45;;
69253;SDS011;56364;41.816;12.448;2023-02-01T23:34:45;32.30;;;12.88;;
69253;SDS011;56364;41.816;12.448;2023-02-01T23:37:11;34.55;;;13.23;;
69253;SDS011;56364;41.816;12.448;2023-02-01T23:39:37;25.98;;;12.55;;
69253;SDS011;56364;41.816;12.448;2023-02-01T23:42:03;32.90;;;13.30;;
69253;SDS011;56364;41.816;12.448;2023-02-01T23:47:02;28.83;;;12.95;;
69253;SDS011;56364;41.816;12.448;2023-02-01T23:49:31;31.33;;;14.13;;
69253;SDS011;56364;41.816;12.448;2023-02-01T23:51:57;31.10;;;13.13;;
69253;SDS011;56364;41.816;12.448;2023-02-01T23:56:51;29.35;;;11.50;;
69253;SDS011;56364;41.816;12.448;2023-02-01T23:59:21;31.38;;;13.27;;
